sensor_id;sensor_type;location;lat;lon;timestamp;pressure;altitude;pressure_sealevel;temperature;humidity
63554;BME280;49699;48.072;7.800;2023-02-23T00:00:13;99142.53;;;9.68;82.98
63554;BME280;49699;48.072;7.800;2023-02-23T00:02:45;99137.34;;;9.68;82.69
63554;BME280;49699;48.072;7.800;2023-02-23T00:05:10;99144.13;;;9.70;82.33
63554;BME280;49699;48.072;7.800;2023-02-23T00:07:36;99139.84;;;9.69;82.60
63554;BME280;49699;48.072;7.800;2023-02-23T00:10:01;99136.41;;;9.69;82.15
63554;BME280;49699;48.072;7.800;2023-02-23T00:12:26;99135.50;;;9.70;82.81
63554;BME280;49699;48.072;7.800;2023-02-23T00:14:52;99138.09;;;9.70;82.41
63554;BME280;49699;48.072;7.800;2023-02-23T00:17:17;99136.34;;;9.70;82.82
63554;BME280;49699;48.072;7.800;2023-02-23T00:19:42;99134.66;;;9.69;82.19
63554;BME280;49699;48.072;7.800;2023-02-23T00:22:08;99131.13;;;9.70;82.43
63554;BME280;49699;48.072;7.800;2023-02-23T00:24:33;99131.97;;;9.71;82.38
63554;BME280;49699;48.072;7.800;2023-02-23T00:27:00;99127.78;;;9.68;82.33
63554;BME280;49699;48.072;7.800;2023-02-23T00:29:31;99132.06;;;9.69;82.44
63554;BME280;49699;48.072;7.800;2023-02-23T00:32:03;99134.66;;;9.69;82.45
63554;BME280;49699;48.072;7.800;2023-02-23T00:34:34;99131.31;;;9.67;82.67
63554;BME280;49699;48.072;7.800;2023-02-23T00:37:02;99127.78;;;9.68;82.50
63554;BME280;49699;48.072;7.800;2023-02-23T00:39:27;99129.56;;;9.68;82.51
63554;BME280;49699;48.072;7.800;2023-02-23T00:41:53;99132.16;;;9.68;82.76
63554;BME280;49699;48.072;7.800;2023-02-23T00:44:19;99127.91;;;9.67;82.63
63554;BME280;49699;48.072;7.800;2023-02-23T00:46:45;99119.28;;;9.66;82.44
63554;BME280;49699;48.072;7.800;2023-02-23T00:49:13;99128.84;;;9.66;82.53
63554;BME280;49699;48.072;7.800;2023-02-23T00:51:40;99127.16;;;9.65;82.28
63554;BME280;49699;48.072;7.800;2023-02-23T00:54:05;99122.97;;;9.62;82.69
63554;BME280;49699;48.072;7.800;2023-02-23T00:56:31;99126.50;;;9.61;82.92
63554;BME280;49699;48.072;7.800;2023-02-23T00:58:56;99119.72;;;9.59;83.18
63554;BME280;49699;48.072;7.800;2023-02-23T01:01:24;99119.72;;;9.59;82.97
63554;BME280;49699;48.072;7.800;2023-02-23T01:03:50;99125.00;;;9.57;82.96
63554;BME280;49699;48.072;7.800;2023-02-23T01:06:17;99113.00;;;9.55;83.04
63554;BME280;49699;48.072;7.800;2023-02-23T01:08:43;99113.00;;;9.55;83.22
63554;BME280;49699;48.072;7.800;2023-02-23T01:11:13;99117.47;;;9.53;83.09
63554;BME280;49699;48.072;7.800;2023-02-23T01:13:40;99110.69;;;9.50;83.06
63554;BME280;49699;48.072;7.800;2023-02-23T01:16:06;99105.59;;;9.49;83.15
63554;BME280;49699;48.072;7.800;2023-02-23T01:18:32;99110.03;;;9.47;83.29
63554;BME280;49699;48.072;7.800;2023-02-23T01:21:00;99111.91;;;9.45;83.03
63554;BME280;49699;48.072;7.800;2023-02-23T01:23:26;99104.19;;;9.43;83.67
63554;BME280;49699;48.072;7.800;2023-02-23T01:25:51;99108.63;;;9.41;83.24
63554;BME280;49699;48.072;7.800;2023-02-23T01:28:16;99106.97;;;9.40;83.50
63554;BME280;49699;48.072;7.800;2023-02-23T01:30:42;99106.97;;;9.40;83.46
63554;BME280;49699;48.072;7.800;2023-02-23T01:33:07;99113.06;;;9.39;83.58
63554;BME280;49699;48.072;7.800;2023-02-23T01:35:33;99113.91;;;9.39;83.34
63554;BME280;49699;48.072;7.800;2023-02-23T01:37:59;99107.88;;;9.39;83.50
63554;BME280;49699;48.072;7.800;2023-02-23T01:40:24;99107.22;;;9.35;83.38
63554;BME280;49699;48.072;7.800;2023-02-23T01:42:54;99103.16;;;9.31;83.50
63554;BME280;49699;48.072;7.800;2023-02-23T01:45:25;99099.03;;;9.27;83.60
63554;BME280;49699;48.072;7.800;2023-02-23T01:47:52;99106.16;;;9.24;83.71
63554;BME280;49699;48.072;7.800;2023-02-23T01:50:20;99100.31;;;9.20;84.18
63554;BME280;49699;48.072;7.800;2023-02-23T01:52:46;99098.72;;;9.18;84.40
63554;BME280;49699;48.072;7.800;2023-02-23T01:55:14;99104.84;;;9.17;84.02
63554;BME280;49699;48.072;7.800;2023-02-23T01:57:47;99104.38;;;9.10;84.67
63554;BME280;49699;48.072;7.800;2023-02-23T02:00:13;99100.44;;;9.03;84.39
63554;BME280;49699;48.072;7.800;2023-02-23T02:02:39;99093.91;;;8.96;84.80
63554;BME280;49699;48.072;7.800;2023-02-23T02:05:05;99094.19;;;8.91;84.77
63554;BME280;49699;48.072;7.800;2023-02-23T02:07:37;99092.94;;;8.83;85.43
63554;BME280;49699;48.072;7.800;2023-02-23T02:10:04;99089.78;;;8.78;85.26
63554;BME280;49699;48.072;7.800;2023-02-23T02:12:36;99096.13;;;8.72;85.61
63554;BME280;49699;48.072;7.800;2023-02-23T02:15:02;99087.66;;;8.68;85.29
63554;BME280;49699;48.072;7.800;2023-02-23T02:17:38;99089.50;;;8.66;85.86
63554;BME280;49699;48.072;7.800;2023-02-23T02:25:27;99081.97;;;8.62;85.83
63554;BME280;49699;48.072;7.800;2023-02-23T02:30:55;99078.91;;;8.55;86.05
63554;BME280;49699;48.072;7.800;2023-02-23T02:36:13;99081.75;;;8.51;86.23
63554;BME280;49699;48.072;7.800;2023-02-23T02:38:56;99075.78;;;8.49;86.55
63554;BME280;49699;48.072;7.800;2023-02-23T02:41:33;99078.56;;;8.46;86.29
63554;BME280;49699;48.072;7.800;2023-02-23T02:44:17;99073.44;;;8.44;86.74
63554;BME280;49699;48.072;7.800;2023-02-23T02:46:45;99068.44;;;8.41;86.89
63554;BME280;49699;48.072;7.800;2023-02-23T02:52:40;99078.38;;;8.33;87.31
63554;BME280;49699;48.072;7.800;2023-02-23T02:54:52;99077.59;;;8.31;86.97
63554;BME280;49699;48.072;7.800;2023-02-23T02:57:21;99073.41;;;8.28;87.61
63554;BME280;49699;48.072;7.800;2023-02-23T02:59:49;99069.97;;;8.28;87.03
63554;BME280;49699;48.072;7.800;2023-02-23T03:02:34;99069.06;;;8.29;87.60
63554;BME280;49699;48.072;7.800;2023-02-23T03:05:21;99069.91;;;8.29;87.54
63554;BME280;49699;48.072;7.800;2023-02-23T03:08:08;99066.41;;;8.30;87.54
63554;BME280;49699;48.072;7.800;2023-02-23T03:11:07;99067.22;;;8.31;87.60
63554;BME280;49699;48.072;7.800;2023-02-23T03:14:02;99062.75;;;8.34;87.41
63554;BME280;49699;48.072;7.800;2023-02-23T03:19:51;99054.97;;;8.34;87.69
63554;BME280;49699;48.072;7.800;2023-02-23T03:22:39;99060.16;;;8.34;87.31
63554;BME280;49699;48.072;7.800;2023-02-23T03:25:31;99059.31;;;8.34;87.37
63554;BME280;49699;48.072;7.800;2023-02-23T03:28:23;99065.25;;;8.36;87.79
63554;BME280;49699;48.072;7.800;2023-02-23T03:36:51;99063.59;;;8.35;87.44
63554;BME280;49699;48.072;7.800;2023-02-23T03:39:42;99061.91;;;8.34;87.97
63554;BME280;49699;48.072;7.800;2023-02-23T03:42:29;99063.59;;;8.35;87.73
63554;BME280;49699;48.072;7.800;2023-02-23T03:45:16;99068.78;;;8.35;87.85
63554;BME280;49699;48.072;7.800;2023-02-23T03:48:02;99057.56;;;8.34;87.95
63554;BME280;49699;48.072;7.800;2023-02-23T03:50:51;99055.81;;;8.35;87.73
63554;BME280;49699;48.072;7.800;2023-02-23T03:53:46;99065.25;;;8.36;87.68
63554;BME280;49699;48.072;7.800;2023-02-23T03:56:34;99061.75;;;8.37;87.54
63554;BME280;49699;48.072;7.800;2023-02-23T03:59:21;99061.75;;;8.37;87.56
63554;BME280;49699;48.072;7.800;2023-02-23T04:02:07;99070.38;;;8.38;87.66
63554;BME280;49699;48.072;7.800;2023-02-23T04:04:52;99063.59;;;8.35;87.61
63554;BME280;49699;48.072;7.800;2023-02-23T04:07:37;99067.03;;;8.35;87.64
63554;BME280;49699;48.072;7.800;2023-02-23T04:10:22;99062.84;;;8.33;87.18
63554;BME280;49699;48.072;7.800;2023-02-23T04:13:11;99059.44;;;8.31;87.69
63554;BME280;49699;48.072;7.800;2023-02-23T04:18:14;99056.94;;;8.29;87.74
63554;BME280;49699;48.072;7.800;2023-02-23T04:20:40;99061.38;;;8.27;88.00
63554;BME280;49699;48.072;7.800;2023-02-23T04:23:05;99069.22;;;8.26;87.81
63554;BME280;49699;48.072;7.800;2023-02-23T04:25:31;99063.41;;;8.22;87.73
63554;BME280;49699;48.072;7.800;2023-02-23T04:27:56;99074.59;;;8.23;87.93
63554;BME280;49699;48.072;7.800;2023-02-23T04:30:22;99062.63;;;8.20;87.81
63554;BME280;49699;48.072;7.800;2023-02-23T04:32:50;99058.44;;;8.18;88.13
63554;BME280;49699;48.072;7.800;2023-02-23T04:35:15;99063.03;;;8.13;87.80
63554;BME280;49699;48.072;7.800;2023-02-23T04:37:41;99062.44;;;8.08;88.31
63554;BME280;49699;48.072;7.800;2023-02-23T04:40:06;99066.06;;;8.05;88.43
63554;BME280;49699;48.072;7.800;2023-02-23T04:42:32;99063.69;;;8.00;88.67
63554;BME280;49699;48.072;7.800;2023-02-23T04:44:57;99065.53;;;7.98;88.71
63554;BME280;49699;48.072;7.800;2023-02-23T04:47:23;99065.69;;;7.95;88.49
63554;BME280;49699;48.072;7.800;2023-02-23T04:49:48;99062.50;;;7.90;88.34
63554;BME280;49699;48.072;7.800;2023-02-23T04:52:13;99068.78;;;7.86;88.88
63554;BME280;49699;48.072;7.800;2023-02-23T04:54:39;99062.06;;;7.82;88.77
63554;BME280;49699;48.072;7.800;2023-02-23T04:57:04;99066.50;;;7.80;88.72
63554;BME280;49699;48.072;7.800;2023-02-23T04:59:30;99058.94;;;7.76;88.84
63554;BME280;49699;48.072;7.800;2023-02-23T05:01:55;99064.28;;;7.73;89.04
63554;BME280;49699;48.072;7.800;2023-02-23T05:04:20;99066.03;;;7.72;89.20
63554;BME280;49699;48.072;7.800;2023-02-23T05:06:46;99065.38;;;7.69;89.34
63554;BME280;49699;48.072;7.800;2023-02-23T05:09:12;99066.38;;;7.66;88.93
63554;BME280;49699;48.072;7.800;2023-02-23T05:11:37;99062.94;;;7.65;89.07
63554;BME280;49699;48.072;7.800;2023-02-23T05:14:02;99074.16;;;7.66;89.39
63554;BME280;49699;48.072;7.800;2023-02-23T05:16:28;99074.22;;;7.64;89.19
63554;BME280;49699;48.072;7.800;2023-02-23T05:18:54;99066.44;;;7.64;89.38
63554;BME280;49699;48.072;7.800;2023-02-23T05:21:19;99072.47;;;7.65;89.16
63554;BME280;49699;48.072;7.800;2023-02-23T05:23:44;99063.88;;;7.64;89.30
63554;BME280;49699;48.072;7.800;2023-02-23T05:26:10;99059.53;;;7.65;89.39
63554;BME280;49699;48.072;7.800;2023-02-23T05:28:36;99065.53;;;7.65;89.38
63554;BME280;49699;48.072;7.800;2023-02-23T05:31:02;99061.19;;;7.66;89.17
63554;BME280;49699;48.072;7.800;2023-02-23T05:33:28;99062.13;;;7.65;89.49
63554;BME280;49699;48.072;7.800;2023-02-23T05:35:53;99067.28;;;7.65;89.22
63554;BME280;49699;48.072;7.800;2023-02-23T05:38:18;99060.34;;;7.65;89.42
63554;BME280;49699;48.072;7.800;2023-02-23T05:40:45;99064.69;;;7.65;89.21
63554;BME280;49699;48.072;7.800;2023-02-23T05:43:10;99067.22;;;7.66;89.04
63554;BME280;49699;48.072;7.800;2023-02-23T05:45:38;99068.06;;;7.67;89.31
63554;BME280;49699;48.072;7.800;2023-02-23T05:48:04;99067.97;;;7.69;88.87
63554;BME280;49699;48.072;7.800;2023-02-23T05:50:29;99068.81;;;7.69;88.99
63554;BME280;49699;48.072;7.800;2023-02-23T05:52:55;99069.53;;;7.71;88.97
63554;BME280;49699;48.072;7.800;2023-02-23T05:55:20;99073.09;;;7.70;89.09
63554;BME280;49699;48.072;7.800;2023-02-23T05:57:45;99069.66;;;7.70;88.84
63554;BME280;49699;48.072;7.800;2023-02-23T06:00:11;99066.13;;;7.71;89.09
63554;BME280;49699;48.072;7.800;2023-02-23T06:02:37;99067.78;;;7.72;88.92
63554;BME280;49699;48.072;7.800;2023-02-23T06:05:03;99066.94;;;7.71;89.08
63554;BME280;49699;48.072;7.800;2023-02-23T06:07:30;99068.63;;;7.72;88.89
63554;BME280;49699;48.072;7.800;2023-02-23T06:09:56;99071.28;;;7.71;89.03
63554;BME280;49699;48.072;7.800;2023-02-23T06:12:21;99070.50;;;7.70;88.90
63554;BME280;49699;48.072;7.800;2023-02-23T06:14:47;99067.78;;;7.72;89.25
63554;BME280;49699;48.072;7.800;2023-02-23T06:17:15;99073.81;;;7.72;89.23
63554;BME280;49699;48.072;7.800;2023-02-23T06:19:40;99076.31;;;7.74;88.95
63554;BME280;49699;48.072;7.800;2023-02-23T06:22:05;99082.19;;;7.77;88.94
63554;BME280;49699;48.072;7.800;2023-02-23T06:24:30;99085.53;;;7.79;89.05
63554;BME280;49699;48.072;7.800;2023-02-23T06:26:56;99081.97;;;7.82;88.74
63554;BME280;49699;48.072;7.800;2023-02-23T06:29:21;99084.41;;;7.85;88.51
63554;BME280;49699;48.072;7.800;2023-02-23T06:31:47;99087.81;;;7.85;88.88
63554;BME280;49699;48.072;7.800;2023-02-23T06:34:12;99082.66;;;7.85;88.48
63554;BME280;49699;48.072;7.800;2023-02-23T06:36:38;99090.22;;;7.88;88.79
63554;BME280;49699;48.072;7.800;2023-02-23T06:39:03;99091.91;;;7.89;88.72
63554;BME280;49699;48.072;7.800;2023-02-23T06:41:29;99092.66;;;7.91;88.38
63554;BME280;49699;48.072;7.800;2023-02-23T06:43:55;99102.03;;;7.94;88.31
63554;BME280;49699;48.072;7.800;2023-02-23T06:46:20;99098.53;;;7.95;88.42
63554;BME280;49699;48.072;7.800;2023-02-23T06:48:46;99107.97;;;7.96;88.71
63554;BME280;49699;48.072;7.800;2023-02-23T06:51:11;99114.00;;;7.96;88.34
63554;BME280;49699;48.072;7.800;2023-02-23T06:53:36;99112.25;;;7.97;88.31
63554;BME280;49699;48.072;7.800;2023-02-23T06:56:02;99115.59;;;7.99;88.56
63554;BME280;49699;48.072;7.800;2023-02-23T06:58:27;99111.19;;;8.01;88.42
63554;BME280;49699;48.072;7.800;2023-02-23T07:00:56;99119.63;;;8.05;88.53
63554;BME280;49699;48.072;7.800;2023-02-23T07:03:23;99115.19;;;8.07;87.96
63554;BME280;49699;48.072;7.800;2023-02-23T07:05:49;99109.94;;;8.08;88.25
63554;BME280;49699;48.072;7.800;2023-02-23T07:08:15;99113.28;;;8.10;88.28
63554;BME280;49699;48.072;7.800;2023-02-23T07:10:42;99122.72;;;8.11;88.38
63554;BME280;49699;48.072;7.800;2023-02-23T07:13:07;99116.56;;;8.14;88.20
63554;BME280;49699;48.072;7.800;2023-02-23T07:15:34;99118.91;;;8.18;88.35
63554;BME280;49699;48.072;7.800;2023-02-23T07:17:59;99114.56;;;8.19;88.59
63554;BME280;49699;48.072;7.800;2023-02-23T07:20:24;99128.22;;;8.22;88.21
63554;BME280;49699;48.072;7.800;2023-02-23T07:22:50;99127.09;;;8.26;88.41
63554;BME280;49699;48.072;7.800;2023-02-23T07:25:16;99120.09;;;8.28;88.27
63554;BME280;49699;48.072;7.800;2023-02-23T07:27:41;99125.09;;;8.31;88.29
63554;BME280;49699;48.072;7.800;2023-02-23T07:30:07;99126.66;;;8.35;88.26
63554;BME280;49699;48.072;7.800;2023-02-23T07:32:32;99123.00;;;8.40;88.16
63554;BME280;49699;48.072;7.800;2023-02-23T07:34:57;99131.34;;;8.45;87.83
63554;BME280;49699;48.072;7.800;2023-02-23T07:37:23;99125.00;;;8.50;87.71
63554;BME280;49699;48.072;7.800;2023-02-23T07:39:48;99126.44;;;8.56;87.40
63554;BME280;49699;48.072;7.800;2023-02-23T07:42:13;99133.03;;;8.61;87.43
63554;BME280;49699;48.072;7.800;2023-02-23T07:44:38;99130.19;;;8.66;87.41
63554;BME280;49699;48.072;7.800;2023-02-23T07:47:04;99131.69;;;8.70;87.30
63554;BME280;49699;48.072;7.800;2023-02-23T07:49:30;99130.63;;;8.74;87.16
63554;BME280;49699;48.072;7.800;2023-02-23T07:51:56;99129.63;;;8.77;87.11
63554;BME280;49699;48.072;7.800;2023-02-23T07:54:22;99136.38;;;8.79;87.41
63554;BME280;49699;48.072;7.800;2023-02-23T07:56:49;99137.97;;;8.82;87.16
63554;BME280;49699;48.072;7.800;2023-02-23T07:59:14;99127.50;;;8.83;86.99
63554;BME280;49699;48.072;7.800;2023-02-23T08:01:40;99139.31;;;8.89;86.95
63554;BME280;49699;48.072;7.800;2023-02-23T08:04:05;99129.59;;;8.92;87.12
63554;BME280;49699;48.072;7.800;2023-02-23T08:06:30;99132.75;;;8.97;86.87
63554;BME280;49699;48.072;7.800;2023-02-23T08:08:59;99135.19;;;9.00;86.94
63554;BME280;49699;48.072;7.800;2023-02-23T08:11:25;99131.50;;;9.04;86.77
63554;BME280;49699;48.072;7.800;2023-02-23T08:13:53;99133.00;;;9.09;86.78
63554;BME280;49699;48.072;7.800;2023-02-23T08:16:20;99134.50;;;9.13;86.71
63554;BME280;49699;48.072;7.800;2023-02-23T08:18:45;99136.00;;;9.17;86.64
63554;BME280;49699;48.072;7.800;2023-02-23T08:21:11;99137.50;;;9.21;86.50
63554;BME280;49699;48.072;7.800;2023-02-23T08:23:37;99145.88;;;9.26;86.59
63554;BME280;49699;48.072;7.800;2023-02-23T08:26:02;99141.34;;;9.29;86.19
63554;BME280;49699;48.072;7.800;2023-02-23T08:28:28;99146.09;;;9.37;86.17
63554;BME280;49699;48.072;7.800;2023-02-23T08:30:53;99144.91;;;9.43;85.76
63554;BME280;49699;48.072;7.800;2023-02-23T08:33:19;99147.16;;;9.49;86.19
63554;BME280;49699;48.072;7.800;2023-02-23T08:35:44;99143.44;;;9.53;85.74
63554;BME280;49699;48.072;7.800;2023-02-23T08:38:10;99142.25;;;9.58;85.92
63554;BME280;49699;48.072;7.800;2023-02-23T08:40:35;99139.22;;;9.66;86.06
63554;BME280;49699;48.072;7.800;2023-02-23T08:43:00;99131.88;;;9.72;85.56
63554;BME280;49699;48.072;7.800;2023-02-23T08:45:25;99134.13;;;9.79;85.33
63554;BME280;49699;48.072;7.800;2023-02-23T08:47:53;99135.44;;;9.86;85.02
63554;BME280;49699;48.072;7.800;2023-02-23T08:50:18;99125.34;;;9.95;85.02
63554;BME280;49699;48.072;7.800;2023-02-23T08:52:44;99140.28;;;10.06;84.46
63554;BME280;49699;48.072;7.800;2023-02-23T08:55:09;99134.34;;;10.18;84.18
63554;BME280;49699;48.072;7.800;2023-02-23T08:57:35;99132.78;;;10.30;84.06
63554;BME280;49699;48.072;7.800;2023-02-23T09:00:02;99137.88;;;10.46;83.69
63554;BME280;49699;48.072;7.800;2023-02-23T09:02:35;99143.28;;;10.57;83.20
63554;BME280;49699;48.072;7.800;2023-02-23T09:05:01;99143.44;;;10.68;82.74
63554;BME280;49699;48.072;7.800;2023-02-23T09:07:26;99147.13;;;10.78;82.49
63554;BME280;49699;48.072;7.800;2023-02-23T09:09:55;99150.09;;;10.86;82.43
63554;BME280;49699;48.072;7.800;2023-02-23T09:12:20;99142.59;;;10.94;81.74
63554;BME280;49699;48.072;7.800;2023-02-23T09:14:45;99139.34;;;11.05;81.62
63554;BME280;49699;48.072;7.800;2023-02-23T09:17:10;99149.16;;;11.14;81.41
63554;BME280;49699;48.072;7.800;2023-02-23T09:19:36;99147.09;;;11.19;81.04
63554;BME280;49699;48.072;7.800;2023-02-23T09:22:02;99149.22;;;11.27;81.05
63554;BME280;49699;48.072;7.800;2023-02-23T09:24:27;99155.19;;;11.41;80.58
63554;BME280;49699;48.072;7.800;2023-02-23T09:26:52;99146.56;;;11.54;80.24
63554;BME280;49699;48.072;7.800;2023-02-23T09:29:18;99147.31;;;11.68;79.52
63554;BME280;49699;48.072;7.800;2023-02-23T09:31:43;99145.47;;;11.83;79.21
63554;BME280;49699;48.072;7.800;2023-02-23T09:34:08;99140.78;;;12.01;78.41
63554;BME280;49699;48.072;7.800;2023-02-23T09:36:34;99147.16;;;12.22;77.71
63554;BME280;49699;48.072;7.800;2023-02-23T09:38:59;99138.41;;;12.36;77.15
63554;BME280;49699;48.072;7.800;2023-02-23T09:48:53;99144.44;;;12.85;75.26
63554;BME280;49699;48.072;7.800;2023-02-23T09:51:20;99138.03;;;13.13;74.03
63554;BME280;49699;48.072;7.800;2023-02-23T09:53:47;99137.94;;;13.39;73.39
63554;BME280;49699;48.072;7.800;2023-02-23T09:58:49;99142.84;;;13.89;71.32
63554;BME280;49699;48.072;7.800;2023-02-23T10:02:03;99136.22;;;14.08;70.47
63554;BME280;49699;48.072;7.800;2023-02-23T10:06:30;99132.66;;;14.31;69.14
63554;BME280;49699;48.072;7.800;2023-02-23T10:11:42;99131.16;;;14.51;68.12
63554;BME280;49699;48.072;7.800;2023-02-23T10:14:22;99138.03;;;14.63;67.47
63554;BME280;49699;48.072;7.800;2023-02-23T10:22:07;99124.91;;;14.85;66.21
63554;BME280;49699;48.072;7.800;2023-02-23T10:24:36;99121.88;;;14.90;66.08
63554;BME280;49699;48.072;7.800;2023-02-23T10:27:06;99123.56;;;14.91;66.06
63554;BME280;49699;48.072;7.800;2023-02-23T10:29:35;99124.63;;;15.00;65.67
63554;BME280;49699;48.072;7.800;2023-02-23T10:34:47;99115.63;;;15.13;65.20
63554;BME280;49699;48.072;7.800;2023-02-23T10:37:13;99119.31;;;15.22;64.90
63554;BME280;49699;48.072;7.800;2023-02-23T10:39:40;99119.03;;;15.25;64.52
63554;BME280;49699;48.072;7.800;2023-02-23T10:42:06;99124.72;;;15.30;64.24
63554;BME280;49699;48.072;7.800;2023-02-23T10:44:37;99120.53;;;15.39;63.73
63554;BME280;49699;48.072;7.800;2023-02-23T10:47:18;99116.13;;;15.39;63.55
63554;BME280;49699;48.072;7.800;2023-02-23T10:49:52;99119.13;;;15.35;63.51
63554;BME280;49699;48.072;7.800;2023-02-23T10:53:02;99118.41;;;15.33;63.13
63554;BME280;49699;48.072;7.800;2023-02-23T10:55:07;99107.31;;;15.40;63.20
63554;BME280;49699;48.072;7.800;2023-02-23T10:57:33;99111.66;;;15.51;62.81
63554;BME280;49699;48.072;7.800;2023-02-23T11:02:33;99107.84;;;15.76;61.29
63554;BME280;49699;48.072;7.800;2023-02-23T11:05:00;99103.69;;;15.73;61.34
63554;BME280;49699;48.072;7.800;2023-02-23T11:07:27;99109.69;;;15.64;61.42
63554;BME280;49699;48.072;7.800;2023-02-23T11:09:54;99105.91;;;15.78;60.89
63554;BME280;49699;48.072;7.800;2023-02-23T11:12:22;99101.59;;;15.97;60.25
63554;BME280;49699;48.072;7.800;2023-02-23T11:14:49;99104.56;;;16.14;59.27
63554;BME280;49699;48.072;7.800;2023-02-23T11:17:31;99106.84;;;15.97;59.41
63554;BME280;49699;48.072;7.800;2023-02-23T11:19:58;99097.72;;;15.92;59.59
63554;BME280;49699;48.072;7.800;2023-02-23T11:22:28;99100.38;;;16.02;59.40
63554;BME280;49699;48.072;7.800;2023-02-23T11:24:54;99097.53;;;16.14;58.44
63554;BME280;49699;48.072;7.800;2023-02-23T11:27:21;99084.72;;;16.21;58.06
63554;BME280;49699;48.072;7.800;2023-02-23T11:29:48;99085.44;;;16.32;57.46
63554;BME280;49699;48.072;7.800;2023-02-23T11:32:18;99089.47;;;16.37;57.38
63554;BME280;49699;48.072;7.800;2023-02-23T11:34:46;99095.94;;;16.32;57.66
63554;BME280;49699;48.072;7.800;2023-02-23T11:39:51;99093.31;;;16.63;56.05
63554;BME280;49699;48.072;7.800;2023-02-23T11:42:18;99086.28;;;16.73;55.44
63554;BME280;49699;48.072;7.800;2023-02-23T11:44:51;99080.66;;;16.97;54.77
63554;BME280;49699;48.072;7.800;2023-02-23T11:47:18;99084.81;;;17.19;53.63
63554;BME280;49699;48.072;7.800;2023-02-23T11:49:45;99078.44;;;17.12;53.05
63554;BME280;49699;48.072;7.800;2023-02-23T11:52:16;99074.44;;;17.17;53.02
63554;BME280;49699;48.072;7.800;2023-02-23T11:54:47;99071.50;;;17.40;52.21
63554;BME280;49699;48.072;7.800;2023-02-23T11:57:21;99062.06;;;17.66;51.48
63554;BME280;49699;48.072;7.800;2023-02-23T11:59:47;99065.38;;;17.58;51.57
63554;BME280;49699;48.072;7.800;2023-02-23T12:02:24;99060.13;;;17.39;51.76
63554;BME280;49699;48.072;7.800;2023-02-23T12:05:35;99064.75;;;17.18;52.23
63554;BME280;49699;48.072;7.800;2023-02-23T12:10:36;99068.91;;;17.01;52.61
63554;BME280;49699;48.072;7.800;2023-02-23T12:18:10;99062.00;;;16.50;53.60
63554;BME280;49699;48.072;7.800;2023-02-23T12:20:39;99066.66;;;16.27;53.74
63554;BME280;49699;48.072;7.800;2023-02-23T12:23:11;99063.53;;;16.13;54.14
63554;BME280;49699;48.072;7.800;2023-02-23T12:25:39;99064.91;;;16.07;54.10
63554;BME280;49699;48.072;7.800;2023-02-23T12:28:29;99054.47;;;15.96;53.77
63554;BME280;49699;48.072;7.800;2023-02-23T12:30:57;99056.50;;;15.83;53.86
63554;BME280;49699;48.072;7.800;2023-02-23T12:38:47;99053.09;;;15.92;53.57
63554;BME280;49699;48.072;7.800;2023-02-23T12:41:15;99046.22;;;16.01;53.48
63554;BME280;49699;48.072;7.800;2023-02-23T12:43:49;99041.41;;;16.06;53.24
63554;BME280;49699;48.072;7.800;2023-02-23T12:46:22;99048.72;;;16.02;53.53
63554;BME280;49699;48.072;7.800;2023-02-23T12:48:59;99038.66;;;16.07;53.43
63554;BME280;49699;48.072;7.800;2023-02-23T12:51:38;99042.72;;;16.21;52.97
63554;BME280;49699;48.072;7.800;2023-02-23T12:54:07;99041.22;;;16.28;52.68
63554;BME280;49699;48.072;7.800;2023-02-23T13:01:55;99041.50;;;16.35;51.82
63554;BME280;49699;48.072;7.800;2023-02-23T13:09:38;99032.41;;;16.48;51.26
63554;BME280;49699;48.072;7.800;2023-02-23T13:20:00;99028.56;;;16.62;50.74
63554;BME280;49699;48.072;7.800;2023-02-23T13:22:33;99019.56;;;16.45;51.17
63554;BME280;49699;48.072;7.800;2023-02-23T13:25:02;99027.66;;;16.32;51.48
63554;BME280;49699;48.072;7.800;2023-02-23T13:27:35;99024.91;;;16.24;51.91
63554;BME280;49699;48.072;7.800;2023-02-23T13:30:02;99017.94;;;16.14;52.56
63554;BME280;49699;48.072;7.800;2023-02-23T13:32:29;99016.25;;;16.03;53.03
63554;BME280;49699;48.072;7.800;2023-02-23T13:35:00;99019.00;;;16.02;53.25
63554;BME280;49699;48.072;7.800;2023-02-23T13:37:42;99026.50;;;16.06;53.18
63554;BME280;49699;48.072;7.800;2023-02-23T13:40:21;99026.50;;;16.06;53.46
63554;BME280;49699;48.072;7.800;2023-02-23T13:48:05;99015.19;;;16.15;52.61
63554;BME280;49699;48.072;7.800;2023-02-23T13:53:26;99015.75;;;16.19;52.33
63554;BME280;49699;48.072;7.800;2023-02-23T13:55:52;99012.81;;;16.12;52.70
63554;BME280;49699;48.072;7.800;2023-02-23T13:58:28;99014.78;;;16.10;52.57
63554;BME280;49699;48.072;7.800;2023-02-23T14:03:29;99016.44;;;16.11;52.75
63554;BME280;49699;48.072;7.800;2023-02-23T14:05:58;99011.59;;;16.16;52.68
63554;BME280;49699;48.072;7.800;2023-02-23T14:08:35;99017.16;;;16.23;52.23
63554;BME280;49699;48.072;7.800;2023-02-23T14:11:01;99016.06;;;16.25;52.15
63554;BME280;49699;48.072;7.800;2023-02-23T14:13:31;99014.47;;;16.13;52.06
63554;BME280;49699;48.072;7.800;2023-02-23T14:18:34;99015.81;;;15.98;52.68
63554;BME280;49699;48.072;7.800;2023-02-23T14:26:34;99007.53;;;15.93;53.18
63554;BME280;49699;48.072;7.800;2023-02-23T14:31:33;99007.44;;;16.14;53.08
63554;BME280;49699;48.072;7.800;2023-02-23T14:33:59;99005.66;;;16.14;53.22
63554;BME280;49699;48.072;7.800;2023-02-23T14:36:32;98998.91;;;16.12;53.44
63554;BME280;49699;48.072;7.800;2023-02-23T14:38:59;99004.16;;;16.12;53.64
63554;BME280;49699;48.072;7.800;2023-02-23T14:41:30;99007.41;;;16.04;54.41
63554;BME280;49699;48.072;7.800;2023-02-23T14:43:58;99009.47;;;15.91;54.97
63554;BME280;49699;48.072;7.800;2023-02-23T14:46:24;99002.41;;;15.91;55.51
63554;BME280;49699;48.072;7.800;2023-02-23T14:48:57;99017.59;;;15.88;55.92
63554;BME280;49699;48.072;7.800;2023-02-23T14:51:32;99010.34;;;15.80;56.22
63554;BME280;49699;48.072;7.800;2023-02-23T14:53:58;99009.88;;;15.66;56.84
63554;BME280;49699;48.072;7.800;2023-02-23T14:56:23;99016.78;;;15.46;57.78
63554;BME280;49699;48.072;7.800;2023-02-23T14:58:49;99011.25;;;15.18;59.78
63554;BME280;49699;48.072;7.800;2023-02-23T15:01:35;99018.88;;;14.89;61.16
63554;BME280;49699;48.072;7.800;2023-02-23T15:04:11;99025.53;;;14.62;62.04